createdAt,value
2017-11-14T00:01:02.886Z,58.50
2017-11-14T00:03:31.585Z,58.40
2017-11-14T00:05:59.117Z,58.30
2017-11-14T00:08:26.696Z,58.00
2017-11-14T00:10:54.278Z,57.80
2017-11-14T00:13:21.802Z,57.70
2017-11-14T00:15:50.077Z,57.20
2017-11-14T00:18:17.886Z,57.60
2017-11-14T00:20:45.440Z,57.70
2017-11-14T00:23:13.015Z,57.50
2017-11-14T00:25:40.510Z,57.40
2017-11-14T00:28:08.887Z,56.80
2017-11-14T00:30:37.202Z,56.50
2017-11-14T00:33:04.729Z,56.50
2017-11-14T00:35:35.131Z,56.30
2017-11-14T00:38:03.069Z,56.30
2017-11-14T00:40:31.497Z,56.40
2017-11-14T00:42:59.841Z,56.50
2017-11-14T00:45:27.790Z,56.50
2017-11-14T00:47:56.963Z,56.40
2017-11-14T00:50:24.556Z,56.40
2017-11-14T00:52:52.577Z,56.00
2017-11-14T00:55:21.113Z,56.30
2017-11-14T00:57:50.681Z,56.70
2017-11-14T01:00:18.514Z,56.70
2017-11-14T01:02:46.821Z,56.60
2017-11-14T01:05:14.416Z,56.60
2017-11-14T01:07:41.972Z,56.50
2017-11-14T01:10:10.956Z,56.50
2017-11-14T01:12:39.480Z,56.40
2017-11-14T01:15:07.584Z,56.30
2017-11-14T01:17:35.107Z,55.80
2017-11-14T01:20:02.665Z,56.40
2017-11-14T01:22:31.223Z,56.10
2017-11-14T01:24:58.717Z,56.00
2017-11-14T01:27:27.837Z,56.20
2017-11-14T01:29:56.163Z,55.90
2017-11-14T01:32:24.965Z,55.90
2017-11-14T01:34:52.543Z,55.90
2017-11-14T01:37:20.827Z,56.00
2017-11-14T01:39:49.098Z,55.80
2017-11-14T01:42:18.056Z,55.90
2017-11-14T01:44:45.553Z,55.20
2017-11-14T01:47:14.418Z,55.20
2017-11-14T01:49:41.959Z,55.10
2017-11-14T01:52:10.352Z,54.80
2017-11-14T01:54:37.860Z,54.70
2017-11-14T01:57:05.463Z,54.80
2017-11-14T01:59:32.960Z,54.80
2017-11-14T02:02:01.067Z,54.90
2017-11-14T02:04:29.258Z,54.70
2017-11-14T02:06:57.366Z,55.00
2017-11-14T02:09:24.975Z,55.30
2017-11-14T02:11:52.521Z,55.50
2017-11-14T02:14:20.053Z,55.70
2017-11-14T02:16:48.840Z,55.90
2017-11-14T02:19:16.386Z,55.90
2017-11-14T02:21:43.934Z,56.00
2017-11-14T02:24:11.476Z,55.80
2017-11-14T02:26:44.640Z,55.80
2017-11-14T02:29:12.154Z,55.70
2017-11-14T02:31:39.664Z,55.70
2017-11-14T02:34:07.189Z,55.80
2017-11-14T02:36:35.455Z,55.20
2017-11-14T02:39:09.798Z,55.20
2017-11-14T02:41:37.326Z,55.40
2017-11-14T02:44:04.828Z,55.30
2017-11-14T02:46:32.375Z,55.50
2017-11-14T02:48:59.964Z,55.40
2017-11-14T02:51:27.712Z,55.40
2017-11-14T02:53:55.257Z,54.80
2017-11-14T02:56:23.610Z,55.00
2017-11-14T02:58:51.554Z,55.00
2017-11-14T03:01:19.045Z,55.10
2017-11-14T03:03:47.319Z,54.70
2017-11-14T03:06:15.157Z,54.70
2017-11-14T03:08:42.706Z,54.30
2017-11-14T03:11:10.192Z,54.30
2017-11-14T03:13:38.715Z,54.40
2017-11-14T03:16:06.284Z,54.30
2017-11-14T03:18:33.785Z,54.00
2017-11-14T03:21:01.321Z,54.20
2017-11-14T03:23:28.892Z,54.20
2017-11-14T03:25:57.193Z,54.30
2017-11-14T03:28:24.724Z,54.30
2017-11-14T03:30:52.242Z,54.10
2017-11-14T03:33:19.778Z,54.00
2017-11-14T03:35:47.301Z,54.00
2017-11-14T03:38:14.830Z,54.20
2017-11-14T03:40:42.385Z,54.30
2017-11-14T03:43:09.896Z,54.20
2017-11-14T03:45:37.413Z,54.30
2017-11-14T03:48:04.983Z,54.30
2017-11-14T03:50:32.487Z,54.30
2017-11-14T03:52:59.988Z,54.20
2017-11-14T03:55:27.544Z,54.30
2017-11-14T03:57:55.796Z,54.00
2017-11-14T04:00:24.105Z,54.00
2017-11-14T04:02:51.640Z,53.90
2017-11-14T04:05:19.327Z,53.70
2017-11-14T04:07:46.816Z,53.40
2017-11-14T04:10:14.375Z,53.40
2017-11-14T04:12:41.882Z,53.20
2017-11-14T04:15:09.996Z,53.10
2017-11-14T04:17:37.501Z,52.90
2017-11-14T04:20:05.830Z,53.20
2017-11-14T04:22:33.330Z,53.20
2017-11-14T04:25:01.654Z,53.20
2017-11-14T04:27:29.153Z,53.20
2017-11-14T04:29:56.647Z,52.90
2017-11-14T04:32:24.890Z,53.10
2017-11-14T04:34:52.416Z,53.10
2017-11-14T04:37:19.902Z,53.60
2017-11-14T04:39:47.446Z,53.10
2017-11-14T04:42:14.940Z,52.90
2017-11-14T04:44:43.252Z,52.80
2017-11-14T04:47:10.781Z,52.60
2017-11-14T04:49:38.287Z,52.50
2017-11-14T04:52:05.819Z,52.40
2017-11-14T04:54:33.403Z,52.40
2017-11-14T04:57:00.902Z,52.50
2017-11-14T04:59:29.193Z,52.50
2017-11-14T05:01:57.242Z,52.40
2017-11-14T05:04:24.754Z,52.30
2017-11-14T05:06:52.272Z,52.60
2017-11-14T05:09:19.866Z,52.50
2017-11-14T05:11:47.367Z,52.40
2017-11-14T05:14:14.871Z,52.40
2017-11-14T05:16:43.434Z,52.60
2017-11-14T05:19:11.699Z,53.00
2017-11-14T05:21:40.042Z,52.90
2017-11-14T05:24:07.541Z,52.90
2017-11-14T05:26:35.059Z,53.00
2017-11-14T05:29:02.580Z,53.10
2017-11-14T05:31:31.392Z,53.20
2017-11-14T05:33:58.919Z,53.50
2017-11-14T05:36:26.950Z,53.30
2017-11-14T05:38:54.440Z,53.20
2017-11-14T05:41:22.161Z,53.00
2017-11-14T05:43:50.520Z,53.20
2017-11-14T05:46:19.372Z,53.30
2017-11-14T05:48:48.560Z,53.50
2017-11-14T05:51:16.890Z,53.80
2017-11-14T05:53:44.909Z,53.80
2017-11-14T05:56:12.419Z,53.90
2017-11-14T05:58:39.936Z,54.00
2017-11-14T06:01:07.848Z,54.00
2017-11-14T06:03:36.104Z,53.90
2017-11-14T06:06:03.626Z,53.80
2017-11-14T06:08:31.820Z,54.10
2017-11-14T06:11:02.857Z,54.30
2017-11-14T06:13:31.586Z,54.30
2017-11-14T06:15:59.546Z,54.30
2017-11-14T06:18:28.745Z,54.40
2017-11-14T06:20:57.153Z,54.60
2017-11-14T06:23:24.690Z,54.60
2017-11-14T06:25:52.208Z,54.50
2017-11-14T06:28:20.529Z,54.40
2017-11-14T06:30:48.016Z,54.40
2017-11-14T06:33:15.580Z,54.30
2017-11-14T06:35:43.091Z,54.20
2017-11-14T06:38:10.590Z,54.30
2017-11-14T06:40:38.126Z,54.30
2017-11-14T06:43:05.669Z,54.50
2017-11-14T06:45:33.167Z,54.60
2017-11-14T06:48:00.701Z,54.60
2017-11-14T06:50:28.803Z,54.40
2017-11-14T06:52:57.904Z,54.70
2017-11-14T06:55:25.444Z,54.30
2017-11-14T06:57:52.972Z,54.30
2017-11-14T07:00:20.585Z,54.50
2017-11-14T07:02:48.142Z,54.50
2017-11-14T07:05:15.677Z,54.00
2017-11-14T07:07:43.237Z,53.50
2017-11-14T07:10:10.743Z,54.20
2017-11-14T07:12:38.293Z,53.70
2017-11-14T07:15:06.647Z,53.30
2017-11-14T07:17:35.668Z,53.20
2017-11-14T07:20:04.133Z,53.00
2017-11-14T07:22:31.671Z,53.00
2017-11-14T07:24:59.210Z,52.50
2017-11-14T07:27:26.702Z,52.20
2017-11-14T07:29:54.191Z,51.90
2017-11-14T07:32:21.712Z,52.30
2017-11-14T07:34:49.238Z,51.70
2017-11-14T07:37:16.820Z,51.80
2017-11-14T07:39:44.349Z,52.60
2017-11-14T07:42:11.902Z,52.60
2017-11-14T07:44:39.422Z,52.70
2017-11-14T07:47:06.945Z,52.20
2017-11-14T07:49:34.481Z,52.20
2017-11-14T07:52:02.568Z,52.00
2017-11-14T07:54:30.142Z,52.00
2017-11-14T07:56:57.650Z,51.70
2017-11-14T07:59:25.969Z,51.70
2017-11-14T08:01:53.490Z,51.70
2017-11-14T08:04:21.769Z,51.50
2017-11-14T08:06:50.049Z,51.60
2017-11-14T08:09:18.338Z,51.60
2017-11-14T08:11:45.950Z,51.50
2017-11-14T08:14:13.442Z,51.80
2017-11-14T08:16:41.754Z,52.00
2017-11-14T08:19:09.280Z,51.90
2017-11-14T08:21:36.812Z,52.00
2017-11-14T08:24:04.338Z,51.90
2017-11-14T08:26:31.848Z,51.20
2017-11-14T08:28:59.375Z,51.30
2017-11-14T08:31:26.885Z,51.80
2017-11-14T08:33:54.436Z,51.20
2017-11-14T08:36:21.958Z,51.30
2017-11-14T08:38:49.459Z,51.40
2017-11-14T08:41:17.034Z,50.70
2017-11-14T08:43:44.564Z,50.90
2017-11-14T08:46:12.097Z,51.10
2017-11-14T08:48:39.632Z,50.60
2017-11-14T08:51:07.181Z,50.30
2017-11-14T08:53:34.705Z,50.10
2017-11-14T08:56:02.966Z,51.00
2017-11-14T08:58:31.275Z,50.10
2017-11-14T09:00:58.792Z,50.10
2017-11-14T09:03:26.335Z,49.80
2017-11-14T09:05:53.860Z,50.10
2017-11-14T09:08:21.378Z,50.80
2017-11-14T09:10:49.658Z,50.60
2017-11-14T09:13:17.939Z,50.10
2017-11-14T09:15:46.241Z,50.60
2017-11-14T09:18:13.766Z,50.50
2017-11-14T09:20:41.303Z,50.10
2017-11-14T09:23:08.829Z,50.40
2017-11-14T09:25:36.408Z,50.10
2017-11-14T09:28:03.961Z,49.10
2017-11-14T09:30:31.576Z,49.30
2017-11-14T09:32:59.874Z,49.10
2017-11-14T09:35:28.539Z,49.70
2017-11-14T09:37:56.883Z,49.50
2017-11-14T09:40:24.458Z,49.40
2017-11-14T09:42:52.277Z,49.00
2017-11-14T09:45:19.938Z,47.60
2017-11-14T09:47:47.497Z,47.30
2017-11-14T09:50:15.839Z,47.70
2017-11-14T09:52:44.228Z,48.20
2017-11-14T09:55:11.763Z,48.20
2017-11-14T09:57:39.430Z,47.90
2017-11-14T10:00:07.831Z,47.40
2017-11-14T10:02:36.033Z,47.40
2017-11-14T10:05:03.791Z,48.10
2017-11-14T10:07:31.350Z,47.60
2017-11-14T10:09:58.884Z,47.30
2017-11-14T10:12:27.305Z,45.40
2017-11-14T10:14:54.869Z,45.30
2017-11-14T10:17:22.497Z,44.50
2017-11-14T10:19:50.069Z,45.00
2017-11-14T10:22:17.737Z,45.20
2017-11-14T10:24:45.307Z,44.70
2017-11-14T10:27:12.829Z,44.90
2017-11-14T10:29:40.424Z,44.80
2017-11-14T10:32:07.991Z,44.00
2017-11-14T10:34:35.590Z,44.10
2017-11-14T10:37:03.184Z,42.50
2017-11-14T10:39:30.724Z,42.90
2017-11-14T10:41:58.324Z,42.90
2017-11-14T10:44:25.903Z,43.20
2017-11-14T10:46:53.404Z,43.30
2017-11-14T10:49:20.983Z,43.40
2017-11-14T10:51:48.488Z,43.60
2017-11-14T10:54:16.039Z,42.90
2017-11-14T10:56:43.613Z,43.20
2017-11-14T10:59:11.131Z,43.40
2017-11-14T11:01:39.562Z,42.40
2017-11-14T11:04:07.113Z,42.40
2017-11-14T11:06:34.626Z,43.10
2017-11-14T11:09:02.222Z,43.00
2017-11-14T11:11:29.765Z,42.90
2017-11-14T11:13:57.278Z,42.90
2017-11-14T11:16:33.536Z,42.90
2017-11-14T11:19:01.848Z,43.40
2017-11-14T11:21:29.418Z,43.40
2017-11-14T11:23:57.033Z,44.10
2017-11-14T11:26:25.416Z,45.30
2017-11-14T11:28:53.791Z,46.40
2017-11-14T11:31:21.376Z,46.30
2017-11-14T11:33:48.992Z,46.90
2017-11-14T11:36:16.505Z,46.80
2017-11-14T11:38:44.724Z,47.10
2017-11-14T11:41:12.653Z,47.50
2017-11-14T11:43:41.187Z,47.60
2017-11-14T11:46:09.104Z,47.70
2017-11-14T11:48:36.637Z,47.60
2017-11-14T11:51:04.205Z,47.60
2017-11-14T11:53:31.780Z,46.10
2017-11-14T11:55:59.356Z,46.20
2017-11-14T11:58:26.944Z,46.00
2017-11-14T12:00:54.562Z,45.50
2017-11-14T12:03:22.124Z,45.00
2017-11-14T12:05:49.840Z,44.70
2017-11-14T12:08:18.167Z,44.80
2017-11-14T12:10:45.715Z,44.70
2017-11-14T12:13:13.281Z,44.70
2017-11-14T12:15:40.872Z,44.50
2017-11-14T12:18:08.439Z,44.50
2017-11-14T12:20:35.971Z,44.70
2017-11-14T12:23:03.567Z,44.60
2017-11-14T12:25:31.259Z,44.80
2017-11-14T12:27:58.888Z,45.10
2017-11-14T12:30:26.419Z,45.10
2017-11-14T12:32:53.978Z,44.60
2017-11-14T12:35:21.640Z,44.50
2017-11-14T12:37:49.163Z,44.40
2017-11-14T12:40:16.704Z,44.20
2017-11-14T12:42:44.278Z,44.20
2017-11-14T12:45:12.638Z,44.40
2017-11-14T12:47:40.141Z,44.40
2017-11-14T12:50:07.712Z,44.30
2017-11-14T12:52:35.258Z,43.70
2017-11-14T12:55:02.820Z,44.00
2017-11-14T12:57:30.319Z,44.40
2017-11-14T12:59:57.864Z,44.40
2017-11-14T13:02:25.366Z,45.20
2017-11-14T13:04:52.866Z,44.10
2017-11-14T13:07:20.413Z,44.00
2017-11-14T13:09:47.954Z,44.30
2017-11-14T13:12:15.532Z,44.10
2017-11-14T13:14:43.201Z,44.40
2017-11-14T13:17:10.854Z,44.10
2017-11-14T13:19:38.497Z,44.00
2017-11-14T13:22:06.418Z,43.30
2017-11-14T13:24:33.928Z,43.30
2017-11-14T13:27:01.474Z,42.60
2017-11-14T13:29:29.174Z,42.50
2017-11-14T13:31:56.750Z,42.50
2017-11-14T13:34:24.795Z,42.10
2017-11-14T13:36:52.433Z,41.80
2017-11-14T13:39:20.745Z,41.00
2017-11-14T13:41:48.277Z,41.00
2017-11-14T13:44:15.804Z,41.10
2017-11-14T13:46:43.297Z,41.40
2017-11-14T13:49:10.834Z,41.80
2017-11-14T13:51:39.116Z,42.20
2017-11-14T13:54:07.397Z,42.00
2017-11-14T13:56:34.936Z,41.90
2017-11-14T13:59:02.441Z,42.20
2017-11-14T14:01:29.969Z,41.80
2017-11-14T14:03:57.470Z,41.80
2017-11-14T14:06:25.003Z,42.40
2017-11-14T14:08:52.565Z,41.90
2017-11-14T14:11:20.100Z,42.30
2017-11-14T14:13:47.622Z,42.50
2017-11-14T14:16:15.123Z,42.60
2017-11-14T14:18:42.713Z,42.30
2017-11-14T14:21:10.225Z,42.20
2017-11-14T14:23:37.722Z,42.60
2017-11-14T14:26:05.254Z,42.50
2017-11-14T14:28:36.262Z,42.60
2017-11-14T14:31:03.843Z,42.60
2017-11-14T14:33:31.362Z,42.60
2017-11-14T14:35:58.934Z,42.60
2017-11-14T14:38:26.436Z,42.70
2017-11-14T14:40:53.970Z,42.80
2017-11-14T14:43:21.562Z,42.80
2017-11-14T14:45:49.145Z,42.80
2017-11-14T14:48:16.672Z,42.80
2017-11-14T14:50:44.222Z,42.80
2017-11-14T14:53:11.776Z,42.60
2017-11-14T14:55:39.330Z,43.40
2017-11-14T14:58:06.886Z,42.50
2017-11-14T15:00:34.442Z,42.20
2017-11-14T15:03:01.931Z,42.50
2017-11-14T15:05:30.349Z,42.20
2017-11-14T15:07:57.848Z,42.20
2017-11-14T15:10:25.382Z,42.10
2017-11-14T15:12:52.882Z,42.10
2017-11-14T15:15:20.573Z,42.10
2017-11-14T15:17:48.060Z,42.10
2017-11-14T15:20:15.598Z,42.40
2017-11-14T15:22:43.131Z,42.40
2017-11-14T15:25:10.685Z,42.70
2017-11-14T15:27:38.965Z,43.00
2017-11-14T15:30:07.376Z,43.00
2017-11-14T15:32:35.224Z,43.00
2017-11-14T15:35:02.807Z,43.40
2017-11-14T15:37:30.357Z,43.70
2017-11-14T15:39:57.881Z,44.00
2017-11-14T15:42:25.416Z,44.20
2017-11-14T15:44:52.937Z,44.20
2017-11-14T15:47:20.459Z,44.30
2017-11-14T15:49:47.990Z,44.50
2017-11-14T15:52:15.528Z,44.50
2017-11-14T15:54:43.267Z,44.80
2017-11-14T15:57:10.779Z,44.90
2017-11-14T15:59:38.395Z,44.70
2017-11-14T16:02:05.941Z,44.80
2017-11-14T16:04:33.522Z,45.10
2017-11-14T16:07:01.180Z,44.90
2017-11-14T16:09:28.702Z,45.20
2017-11-14T16:11:57.003Z,45.80
2017-11-14T16:14:24.563Z,45.80
2017-11-14T16:16:53.082Z,46.20
2017-11-14T16:19:20.627Z,46.30
2017-11-14T16:21:49.096Z,46.30
2017-11-14T16:24:17.519Z,46.30
2017-11-14T16:26:47.597Z,46.50
2017-11-14T16:29:15.453Z,46.90
2017-11-14T16:31:44.579Z,47.10
2017-11-14T16:34:13.020Z,47.20
2017-11-14T16:36:42.271Z,47.60
2017-11-14T16:39:09.918Z,47.70
2017-11-14T16:41:38.387Z,47.40
2017-11-14T16:44:06.642Z,47.50
2017-11-14T16:46:34.194Z,47.50
2017-11-14T16:49:02.530Z,47.40
2017-11-14T16:51:30.072Z,47.40
2017-11-14T16:53:57.650Z,47.40
2017-11-14T16:56:26.706Z,47.50
2017-11-14T16:58:54.625Z,47.40
2017-11-14T17:01:22.637Z,47.50
2017-11-14T17:03:50.364Z,47.70
2017-11-14T17:06:18.531Z,48.00
2017-11-14T17:08:48.474Z,47.80
2017-11-14T17:11:16.789Z,48.00
2017-11-14T17:13:44.517Z,47.90
2017-11-14T17:16:13.679Z,47.80
2017-11-14T17:18:41.792Z,47.80
2017-11-14T17:21:09.355Z,47.90
2017-11-14T17:23:37.154Z,47.80
2017-11-14T17:26:05.093Z,47.70
2017-11-14T17:28:32.866Z,47.40
2017-11-14T17:31:00.634Z,47.40
2017-11-14T17:33:28.320Z,47.40
2017-11-14T17:35:55.896Z,47.40
2017-11-14T17:38:23.709Z,47.60
2017-11-14T17:40:51.431Z,47.70
2017-11-14T17:43:20.027Z,47.60
2017-11-14T17:45:48.764Z,47.50
2017-11-14T17:48:16.315Z,47.40
2017-11-14T17:50:43.876Z,47.50
2017-11-14T17:53:11.394Z,47.50
2017-11-14T17:55:40.082Z,47.60
2017-11-14T17:58:08.361Z,47.70
2017-11-14T18:00:36.680Z,47.90
2017-11-14T18:03:04.483Z,47.90
2017-11-14T18:05:34.024Z,47.90
2017-11-14T18:08:02.366Z,47.90
2017-11-14T18:10:29.948Z,47.90
2017-11-14T18:12:57.468Z,47.90
2017-11-14T18:15:25.719Z,48.00
2017-11-14T18:17:53.291Z,48.40
2017-11-14T18:20:20.909Z,48.70
2017-11-14T18:22:51.647Z,49.50
2017-11-14T18:25:19.221Z,49.50
2017-11-14T18:27:47.061Z,49.40
2017-11-14T18:30:15.957Z,50.20
2017-11-14T18:32:44.473Z,50.30
2017-11-14T18:35:14.031Z,50.30
2017-11-14T18:37:41.552Z,50.50
2017-11-14T18:40:09.574Z,50.40
2017-11-14T18:42:37.085Z,50.90
2017-11-14T18:45:05.566Z,51.40
2017-11-14T18:47:33.124Z,51.40
2017-11-14T18:50:00.863Z,51.60
2017-11-14T18:52:28.667Z,52.00
2017-11-14T18:54:56.258Z,52.30
2017-11-14T18:57:24.582Z,52.50
2017-11-14T18:59:52.966Z,52.40
2017-11-14T19:02:20.577Z,52.80
2017-11-14T19:04:48.865Z,53.30
2017-11-14T19:07:17.270Z,53.40
2017-11-14T19:09:44.820Z,53.40
2017-11-14T19:12:12.383Z,53.40
2017-11-14T19:14:39.932Z,53.50
2017-11-14T19:17:07.933Z,53.30
2017-11-14T19:19:36.286Z,53.40
2017-11-14T19:22:03.896Z,53.60
2017-11-14T19:24:32.865Z,53.80
2017-11-14T19:27:02.680Z,54.10
2017-11-14T19:29:30.977Z,54.30
2017-11-14T19:31:58.695Z,54.60
2017-11-14T19:34:26.826Z,54.90
2017-11-14T19:36:56.520Z,54.70
2017-11-14T19:39:24.331Z,54.70
2017-11-14T19:41:51.859Z,54.50
2017-11-14T19:44:19.866Z,54.30
2017-11-14T19:46:47.817Z,54.40
2017-11-14T19:49:16.385Z,54.30
2017-11-14T19:51:44.776Z,54.30
2017-11-14T19:54:13.111Z,54.20
2017-11-14T19:56:41.283Z,54.10
2017-11-14T19:59:09.117Z,54.00
2017-11-14T20:01:36.767Z,54.00
2017-11-14T20:04:05.431Z,54.10
2017-11-14T20:06:34.315Z,53.80
2017-11-14T20:09:01.903Z,53.80
2017-11-14T20:11:30.708Z,54.20
2017-11-14T20:13:58.411Z,54.20
2017-11-14T20:16:26.817Z,54.10
2017-11-14T20:18:54.522Z,54.30
2017-11-14T20:21:22.167Z,54.30
2017-11-14T20:23:49.723Z,54.20
2017-11-14T20:26:17.394Z,54.30
2017-11-14T20:28:44.946Z,54.40
2017-11-14T20:31:12.888Z,54.40
2017-11-14T20:33:40.548Z,54.50
2017-11-14T20:36:08.269Z,54.30
2017-11-14T20:38:35.879Z,54.10
2017-11-14T20:41:04.162Z,54.00
2017-11-14T20:43:35.637Z,54.00
2017-11-14T20:46:03.884Z,54.00
2017-11-14T20:48:32.644Z,53.50
2017-11-14T20:51:00.351Z,53.50
2017-11-14T20:53:28.931Z,53.50
2017-11-14T20:55:57.726Z,53.50
2017-11-14T20:58:26.206Z,53.60
2017-11-14T21:00:54.546Z,53.50
2017-11-14T21:03:23.216Z,53.60
2017-11-14T21:05:50.792Z,53.30
2017-11-14T21:08:18.433Z,53.40
2017-11-14T21:10:46.752Z,53.80
2017-11-14T21:13:15.084Z,54.10
2017-11-14T21:15:43.097Z,54.70
2017-11-14T21:18:12.263Z,54.40
2017-11-14T21:20:40.826Z,54.40
2017-11-14T21:23:09.475Z,53.90
2017-11-14T21:25:38.893Z,54.30
2017-11-14T21:28:06.500Z,54.30
2017-11-14T21:30:34.104Z,54.30
2017-11-14T21:33:01.705Z,54.10
2017-11-14T21:35:30.289Z,54.10
2017-11-14T21:37:57.891Z,54.40
2017-11-14T21:40:25.433Z,54.30
2017-11-14T21:42:52.966Z,54.50
2017-11-14T21:45:21.531Z,54.80
2017-11-14T21:47:49.094Z,55.00
2017-11-14T21:50:16.661Z,55.20
2017-11-14T21:52:44.582Z,55.50
2017-11-14T21:55:12.909Z,55.80
2017-11-14T21:57:40.578Z,55.80
2017-11-14T22:00:09.874Z,56.10
2017-11-14T22:02:37.373Z,56.50
2017-11-14T22:05:07.611Z,56.50
2017-11-14T22:07:37.012Z,56.30
2017-11-14T22:10:05.531Z,56.30
2017-11-14T22:12:33.182Z,56.30
2017-11-14T22:15:00.750Z,56.20
2017-11-14T22:17:28.883Z,56.10
2017-11-14T22:19:57.377Z,56.50
2017-11-14T22:22:26.065Z,56.20
2017-11-14T22:24:54.836Z,56.40
2017-11-14T22:27:22.515Z,56.90
2017-11-14T22:29:51.410Z,56.60
2017-11-14T22:32:24.538Z,56.40
2017-11-14T22:34:54.284Z,56.30
2017-11-14T22:37:23.597Z,56.20
2017-11-14T22:39:56.012Z,56.90
2017-11-14T22:42:24.465Z,56.40
2017-11-14T22:45:04.108Z,56.70
2017-11-14T22:47:31.745Z,56.70
2017-11-14T22:49:59.261Z,56.60
2017-11-14T22:52:26.880Z,56.60
2017-11-14T22:54:54.457Z,56.60
2017-11-14T22:57:22.005Z,56.90
2017-11-14T22:59:50.335Z,57.40
2017-11-14T23:02:17.969Z,57.40
2017-11-14T23:04:45.525Z,57.70
2017-11-14T23:07:13.083Z,57.90
2017-11-14T23:09:40.774Z,58.00
2017-11-14T23:12:08.295Z,58.20
2017-11-14T23:14:35.850Z,57.90
2017-11-14T23:17:04.163Z,57.90
2017-11-14T23:19:31.699Z,57.90
2017-11-14T23:21:59.267Z,58.00
2017-11-14T23:24:26.773Z,58.20
2017-11-14T23:26:54.335Z,57.90
2017-11-14T23:29:22.006Z,57.80
2017-11-14T23:31:50.359Z,58.20
2017-11-14T23:34:17.913Z,58.20
2017-11-14T23:36:45.436Z,57.80
2017-11-14T23:39:12.994Z,57.40
2017-11-14T23:41:40.536Z,57.30
2017-11-14T23:44:08.836Z,56.70
2017-11-14T23:46:36.484Z,56.70
2017-11-14T23:49:04.161Z,56.50
2017-11-14T23:51:31.707Z,56.70
2017-11-14T23:53:59.327Z,56.60
2017-11-14T23:56:26.861Z,56.50
2017-11-14T23:58:54.485Z,56.30
